createdAt,value
2018-08-25T00:02:05.503Z,56.60
2018-08-25T00:04:35.128Z,56.70
2018-08-25T00:07:05.632Z,56.80
2018-08-25T00:10:05.702Z,57.00
2018-08-25T00:12:48.005Z,57.30
2018-08-25T00:15:17.501Z,57.20
2018-08-25T00:18:17.040Z,57.20
2018-08-25T00:24:09.759Z,57.40
2018-08-25T00:26:59.582Z,57.00
2018-08-25T00:30:08.014Z,57.50
2018-08-25T00:33:10.591Z,57.90
2018-08-25T00:39:14.967Z,58.10
2018-08-25T00:41:44.466Z,58.20
2018-08-25T00:44:15.055Z,58.60
2018-08-25T00:47:12.764Z,58.40
2018-08-25T00:49:42.795Z,58.20
2018-08-25T00:52:19.616Z,58.70
2018-08-25T00:55:01.918Z,58.90
2018-08-25T00:57:41.383Z,58.80
2018-08-25T01:00:23.135Z,59.10
2018-08-25T01:05:50.721Z,60.00
2018-08-25T01:08:25.353Z,60.50
2018-08-25T01:11:08.197Z,60.70
2018-08-25T01:13:50.392Z,61.30
2018-08-25T01:16:46.284Z,61.30
2018-08-25T01:19:16.467Z,61.10
2018-08-25T01:27:36.915Z,62.70
2018-08-25T01:30:25.760Z,63.80
2018-08-25T01:32:55.532Z,63.50
2018-08-25T01:38:47.500Z,64.60
2018-08-25T01:44:37.905Z,65.20
2018-08-25T01:47:11.675Z,65.50
2018-08-25T01:49:58.566Z,66.40
2018-08-25T01:53:07.045Z,66.20
2018-08-25T01:55:49.767Z,66.40
2018-08-25T01:58:32.769Z,66.70
2018-08-25T02:07:14.799Z,67.60
2018-08-25T02:10:10.375Z,68.50
2018-08-25T02:16:05.515Z,68.40
2018-08-25T02:18:49.060Z,68.90
2018-08-25T02:24:38.209Z,69.00
2018-08-25T02:27:20.480Z,69.10
2018-08-25T02:36:30.466Z,69.50
2018-08-25T02:39:15.882Z,69.60
2018-08-25T02:42:12.972Z,69.70
2018-08-25T02:47:44.283Z,70.20
2018-08-25T02:56:20.419Z,70.30
2018-08-25T02:59:20.528Z,73.30
2018-08-25T03:02:02.742Z,77.20
2018-08-25T03:04:33.890Z,79.70
2018-08-25T03:07:03.653Z,81.60
2018-08-25T03:09:36.295Z,82.10
2018-08-25T03:12:06.740Z,83.60
2018-08-25T03:14:57.076Z,84.40
2018-08-25T03:17:26.808Z,85.00
2018-08-25T03:20:17.573Z,87.90
2018-08-25T03:22:51.414Z,87.70
2018-08-25T03:31:50.145Z,90.00
2018-08-25T03:34:32.827Z,90.10
2018-08-25T03:37:06.157Z,90.70
2018-08-25T03:39:50.539Z,90.90
2018-08-25T03:42:19.748Z,90.90
2018-08-25T03:45:16.137Z,90.50
2018-08-25T03:47:50.765Z,91.30
2018-08-25T03:50:20.167Z,91.60
2018-08-25T03:52:49.369Z,91.60
2018-08-25T03:55:57.603Z,92.00
2018-08-25T03:58:40.302Z,92.50
2018-08-25T04:01:11.836Z,92.80
2018-08-25T04:03:52.406Z,92.60
2018-08-25T04:06:32.856Z,92.50
2018-08-25T04:09:40.564Z,92.60
2018-08-25T04:12:22.920Z,93.30
2018-08-25T04:14:52.700Z,92.90
2018-08-25T04:17:22.487Z,93.40
2018-08-25T04:20:19.152Z,93.70
2018-08-25T04:22:48.716Z,93.60
2018-08-25T04:25:22.641Z,93.70
2018-08-25T04:28:32.584Z,94.10
2018-08-25T04:31:14.088Z,94.20
2018-08-25T04:39:45.746Z,94.50
2018-08-25T04:42:21.876Z,94.20
2018-08-25T04:45:04.209Z,94.50
2018-08-25T04:47:45.981Z,94.60
2018-08-25T04:50:16.852Z,94.50
2018-08-25T04:52:58.492Z,94.60
2018-08-25T04:58:24.900Z,94.30
2018-08-25T05:01:07.563Z,94.60
2018-08-25T05:06:32.815Z,94.60
2018-08-25T05:09:29.395Z,94.50
2018-08-25T05:20:23.001Z,94.60
2018-08-25T05:25:53.634Z,95.20
2018-08-25T05:28:49.585Z,95.10
2018-08-25T05:31:44.855Z,95.20
2018-08-25T05:34:15.249Z,94.80
2018-08-25T05:37:14.119Z,95.40
2018-08-25T05:39:44.955Z,95.80
2018-08-25T05:48:07.677Z,96.90
2018-08-25T05:53:57.999Z,97.50
2018-08-25T05:56:41.350Z,97.30
2018-08-25T05:59:22.650Z,97.10
2018-08-25T06:01:52.772Z,97.00
2018-08-25T06:05:00.790Z,97.00
2018-08-25T06:10:26.773Z,96.90
2018-08-25T06:13:34.541Z,97.10
2018-08-25T06:19:03.205Z,97.30
2018-08-25T06:21:37.923Z,97.40
2018-08-25T06:24:19.758Z,97.30
2018-08-25T06:26:48.945Z,97.40
2018-08-25T06:29:20.296Z,97.20
2018-08-25T06:31:49.745Z,97.10
2018-08-25T06:34:18.997Z,97.10
2018-08-25T06:36:49.780Z,96.00
2018-08-25T06:39:20.084Z,95.80
2018-08-25T06:42:02.558Z,95.60
2018-08-25T06:44:32.278Z,95.70
2018-08-25T06:47:13.816Z,95.50
2018-08-25T06:49:57.469Z,95.50
2018-08-25T06:52:27.744Z,95.10
2018-08-25T06:55:23.545Z,95.70
2018-08-25T06:58:20.348Z,95.90
2018-08-25T07:00:49.535Z,96.00
2018-08-25T07:09:23.861Z,95.20
2018-08-25T07:12:20.243Z,94.30
2018-08-25T07:15:28.262Z,94.90
2018-08-25T07:24:12.834Z,94.10
2018-08-25T07:27:11.921Z,94.20
2018-08-25T07:32:50.165Z,93.00
2018-08-25T07:35:45.142Z,92.90
2018-08-25T07:41:22.527Z,92.60
2018-08-25T07:44:32.981Z,93.30
2018-08-25T07:47:04.497Z,92.20
2018-08-25T08:03:22.781Z,90.20
2018-08-25T08:12:27.968Z,86.90
2018-08-25T08:18:49.180Z,86.20
2018-08-25T08:28:38.411Z,84.40
2018-08-25T08:34:58.720Z,80.60
2018-08-25T08:41:07.014Z,83.50
2018-08-25T08:47:12.397Z,80.10
2018-08-25T08:53:34.383Z,79.60
2018-08-25T09:19:23.785Z,77.80
2018-08-25T09:22:32.119Z,76.60
2018-08-25T09:25:29.236Z,77.60
2018-08-25T09:38:16.267Z,73.70
2018-08-25T09:54:26.941Z,73.60
2018-08-25T10:00:29.997Z,72.50
2018-08-25T10:02:59.349Z,71.50
2018-08-25T10:05:47.227Z,72.90
2018-08-25T10:08:18.616Z,73.90
2018-08-25T10:14:33.884Z,71.80
2018-08-25T10:17:04.628Z,72.70
2018-08-25T10:19:48.410Z,73.00
2018-08-25T10:22:49.114Z,71.90
2018-08-25T10:31:55.565Z,71.80
2018-08-25T10:35:05.420Z,71.40
2018-08-25T10:38:13.583Z,72.20
2018-08-25T10:40:44.078Z,73.20
2018-08-25T10:43:13.379Z,74.10
2018-08-25T10:45:46.588Z,74.60
2018-08-25T10:52:02.016Z,74.00
2018-08-25T11:01:07.475Z,72.60
2018-08-25T11:04:15.854Z,70.50
2018-08-25T11:07:00.411Z,67.10
2018-08-25T11:10:10.108Z,68.50
2018-08-25T11:12:43.665Z,68.90
2018-08-25T11:15:13.705Z,69.10
2018-08-25T11:17:43.536Z,68.10
2018-08-25T11:20:30.472Z,67.60
2018-08-25T11:26:15.093Z,68.30
2018-08-25T11:29:23.582Z,65.30
2018-08-25T11:32:10.252Z,66.30
2018-08-25T11:34:53.861Z,66.50
2018-08-25T11:37:24.331Z,66.40
2018-08-25T11:40:08.604Z,63.80
2018-08-25T11:42:53.304Z,64.20
2018-08-25T11:45:44.503Z,64.30
2018-08-25T11:48:28.737Z,62.50
2018-08-25T11:57:15.306Z,63.10
2018-08-25T11:59:59.841Z,61.40
2018-08-25T12:02:48.241Z,62.00
2018-08-25T12:05:35.335Z,63.50
2018-08-25T12:08:30.613Z,63.50
2018-08-25T12:14:19.463Z,64.00
2018-08-25T12:17:01.288Z,64.40
2018-08-25T12:19:47.626Z,64.50
2018-08-25T12:22:25.540Z,65.30
2018-08-25T12:25:20.136Z,61.90
2018-08-25T12:28:19.703Z,60.10
2018-08-25T12:30:51.596Z,61.50
2018-08-25T12:33:47.781Z,57.20
2018-08-25T12:36:34.440Z,58.80
2018-08-25T12:39:17.913Z,58.30
2018-08-25T12:42:24.070Z,59.60
2018-08-25T12:48:14.841Z,55.70
2018-08-25T12:50:47.170Z,55.20
2018-08-25T12:53:49.929Z,56.10
2018-08-25T12:56:21.119Z,57.80
2018-08-25T13:05:16.890Z,57.60
2018-08-25T13:21:07.991Z,57.40
2018-08-25T13:33:28.120Z,59.90
2018-08-25T13:35:58.797Z,57.60
2018-08-25T13:42:01.319Z,59.90
2018-08-25T13:44:32.227Z,60.50
2018-08-25T13:50:27.784Z,61.60
2018-08-25T13:53:40.057Z,60.30
2018-08-25T13:59:33.164Z,62.10
2018-08-25T14:21:14.588Z,63.10
2018-08-25T14:27:11.112Z,60.40
2018-08-25T14:33:27.557Z,59.70
2018-08-25T14:36:23.328Z,62.30
2018-08-25T14:39:31.794Z,61.80
2018-08-25T14:52:29.024Z,65.80
2018-08-25T14:54:58.917Z,66.10
2018-08-25T14:57:59.708Z,64.60
2018-08-25T15:00:29.213Z,64.50
2018-08-25T15:03:27.855Z,70.40
2018-08-25T15:06:01.749Z,78.00
2018-08-25T15:11:43.989Z,86.50
2018-08-25T15:14:16.507Z,87.40
2018-08-25T15:16:47.748Z,89.40
2018-08-25T15:19:18.748Z,89.50
2018-08-25T15:22:03.702Z,90.10
2018-08-25T15:24:48.725Z,91.20
2018-08-25T15:27:35.259Z,91.20
2018-08-25T15:30:30.715Z,91.00
2018-08-25T15:39:20.714Z,91.00
2018-08-25T15:45:35.155Z,93.50
2018-08-25T15:54:32.661Z,93.20
2018-08-25T16:03:26.452Z,92.50
2018-08-25T16:16:01.537Z,93.10
2018-08-25T16:18:44.330Z,93.40
2018-08-25T16:21:14.938Z,93.70
2018-08-25T16:24:27.260Z,92.70
2018-08-25T16:33:37.558Z,92.70
2018-08-25T16:49:51.469Z,90.80
2018-08-25T16:52:35.635Z,91.20
2018-08-25T16:55:05.188Z,91.70
2018-08-25T16:57:38.949Z,91.90
2018-08-25T17:03:59.199Z,90.50
2018-08-25T17:06:50.517Z,88.80
2018-08-25T17:10:02.417Z,90.00
2018-08-25T17:12:38.105Z,89.20
2018-08-25T17:15:25.129Z,87.80
2018-08-25T17:18:08.659Z,86.00
2018-08-25T17:21:09.770Z,86.30
2018-08-25T17:23:57.639Z,88.30
2018-08-25T17:26:28.319Z,87.70
2018-08-25T17:29:20.449Z,87.50
2018-08-25T17:41:57.400Z,88.70
2018-08-25T17:44:32.707Z,88.30
2018-08-25T17:50:23.556Z,85.90
2018-08-25T17:53:33.280Z,88.80
2018-08-25T17:59:41.496Z,88.20
2018-08-25T18:02:22.782Z,87.50
2018-08-25T18:05:17.825Z,88.00
2018-08-25T18:07:49.080Z,88.10
2018-08-25T18:13:46.601Z,88.60
2018-08-25T18:16:17.478Z,88.10
2018-08-25T18:18:47.983Z,88.50
2018-08-25T18:24:46.615Z,88.20
2018-08-25T18:30:51.191Z,88.00
2018-08-25T18:36:38.493Z,86.30
2018-08-25T18:39:24.800Z,86.30
2018-08-25T18:42:01.134Z,86.60
2018-08-25T18:44:34.318Z,87.10
2018-08-25T18:47:04.800Z,86.90
2018-08-25T18:49:50.640Z,88.00
2018-08-25T18:52:20.477Z,87.90
2018-08-25T18:55:28.743Z,87.60
2018-08-25T18:58:01.716Z,88.10
2018-08-25T19:03:20.738Z,88.90
2018-08-25T19:06:09.322Z,89.70
2018-08-25T19:15:59.604Z,90.40
2018-08-25T19:22:19.599Z,90.90
2018-08-25T19:47:19.331Z,90.10
2018-08-25T19:53:22.708Z,89.60
2018-08-25T19:56:07.368Z,89.50
2018-08-25T20:08:24.127Z,88.40
2018-08-25T20:11:32.540Z,88.00
2018-08-25T20:14:42.615Z,88.50
2018-08-25T20:17:15.600Z,88.50
2018-08-25T20:19:57.761Z,88.20
2018-08-25T20:22:43.997Z,88.80
2018-08-25T20:44:50.198Z,88.70
2018-08-25T20:50:43.250Z,88.70
2018-08-25T20:59:50.197Z,86.80
2018-08-25T21:02:45.587Z,87.30
2018-08-25T21:05:41.400Z,87.30
2018-08-25T21:12:15.062Z,87.60
2018-08-25T21:14:47.612Z,87.50
2018-08-25T21:17:56.368Z,87.00
2018-08-25T21:26:35.192Z,88.00
2018-08-25T21:29:10.918Z,88.00
2018-08-25T21:31:43.056Z,87.70
2018-08-25T21:37:26.844Z,87.80
2018-08-25T21:40:21.309Z,87.80
2018-08-25T21:49:09.180Z,88.50
2018-08-25T21:58:20.139Z,88.80
2018-08-25T22:01:06.158Z,88.40
2018-08-25T22:03:38.816Z,88.80
2018-08-25T22:15:21.199Z,89.50
2018-08-25T22:20:50.207Z,90.00
2018-08-25T22:23:32.785Z,90.20
2018-08-25T22:29:48.960Z,90.70
2018-08-25T22:32:53.182Z,90.20
2018-08-25T22:49:01.083Z,90.10
2018-08-25T22:58:40.283Z,90.40
2018-08-25T23:01:36.997Z,90.40
2018-08-25T23:07:32.187Z,90.50
2018-08-25T23:10:18.490Z,90.30
2018-08-25T23:16:35.187Z,89.90
2018-08-25T23:19:04.737Z,89.70
2018-08-25T23:24:54.677Z,90.00
2018-08-25T23:27:37.032Z,90.10
2018-08-25T23:30:32.563Z,90.10
2018-08-25T23:33:12.449Z,90.10
2018-08-25T23:52:53.097Z,89.70
2018-08-25T23:55:22.590Z,89.60
2018-08-25T23:57:53.439Z,90.70
